Time;durP1;ratioP1;P1;durP2;ratioP2;P2;SDS_P1;SDS_P2;PMS_P1;PMS_P2;Temp;Humidity;BMP_temperature;BMP_pressure;BME280_temperature;BME280_humidity;BME280_pressure;Samples;Min_cycle;Max_cycle;Signal;HPM_P1;HPM_P2
2021/07/15 00:00:00;;;;;;;20.65;18.70;;;19.10;99.90;;;;;;4982984;28;20030;-87
2021/07/15 00:02:26;;;;;;;20.20;18.13;;;19.10;99.90;;;;;;4957518;28;20367;-80
2021/07/15 00:04:51;;;;;;;19.65;17.67;;;19.10;99.90;;;;;;4974845;28;20479;-73
2021/07/15 00:07:18;;;;;;;18.73;16.95;;;19.00;99.90;;;;;;4975096;28;20118;-84
2021/07/15 00:09:44;;;;;;;19.20;17.33;;;19.00;99.90;;;;;;4977711;28;20034;-80
2021/07/15 00:12:13;;;;;;;17.73;15.88;;;19.10;99.90;;;;;;4974242;28;20054;-78
2021/07/15 00:14:39;;;;;;;18.83;16.92;;;19.00;99.90;;;;;;4975143;28;20029;-72
2021/07/15 00:17:06;;;;;;;17.52;15.82;;;19.00;99.90;;;;;;4974849;28;20105;-71
2021/07/15 00:19:32;;;;;;;16.90;15.25;;;19.00;99.90;;;;;;4980619;28;20014;-71
2021/07/15 00:21:58;;;;;;;15.90;14.48;;;19.00;99.90;;;;;;4994357;28;20033;-71
2021/07/15 00:24:25;;;;;;;15.93;14.40;;;19.00;99.90;;;;;;4975795;28;20022;-71
2021/07/15 00:26:52;;;;;;;16.02;14.35;;;19.00;99.90;;;;;;4994447;28;20088;-71
2021/07/15 00:29:19;;;;;;;17.35;15.27;;;19.00;99.90;;;;;;4988756;28;20054;-74
2021/07/15 00:31:44;;;;;;;17.77;15.00;;;19.00;99.90;;;;;;4974228;28;20035;-80
2021/07/15 00:34:10;;;;;;;17.83;14.90;;;18.90;99.90;;;;;;4974462;28;20053;-72
2021/07/15 00:36:36;;;;;;;16.70;15.05;;;18.90;99.90;;;;;;4974886;28;20093;-72
2021/07/15 00:39:04;;;;;;;17.23;15.43;;;18.90;99.90;;;;;;4966610;28;20025;-72
2021/07/15 00:41:30;;;;;;;22.25;16.95;;;18.90;99.90;;;;;;4994515;28;20109;-72
2021/07/15 00:43:56;;;;;;;17.35;15.52;;;18.90;99.90;;;;;;4994438;28;20056;-71
2021/07/15 00:46:21;;;;;;;19.98;17.92;;;18.90;99.90;;;;;;4989918;28;20109;-72
2021/07/15 00:48:47;;;;;;;19.33;17.25;;;18.90;99.90;;;;;;4974633;28;20539;-78
2021/07/15 00:51:13;;;;;;;19.17;17.05;;;18.90;99.90;;;;;;4974172;28;20364;-92
2021/07/15 00:53:38;;;;;;;21.88;17.98;;;18.80;99.90;;;;;;4973659;28;20066;-73
2021/07/15 00:56:06;;;;;;;23.10;19.13;;;18.80;99.90;;;;;;4975269;28;20015;-71
2021/07/15 00:58:32;;;;;;;24.08;18.73;;;18.80;99.90;;;;;;4993551;28;20018;-71
2021/07/15 01:00:58;;;;;;;23.02;19.75;;;18.80;99.90;;;;;;4993432;28;20022;-71
2021/07/15 01:03:23;;;;;;;25.58;21.02;;;18.80;99.90;;;;;;4993489;28;20022;-89
2021/07/15 01:05:53;;;;;;;25.45;21.85;;;18.80;99.90;;;;;;4976520;28;20034;-92
2021/07/15 01:08:19;;;;;;;25.10;20.33;;;18.80;99.90;;;;;;4973545;28;20435;-74
2021/07/15 01:10:53;;;;;;;29.63;21.42;;;18.90;99.90;;;;;;4973944;28;20027;-71
2021/07/15 01:13:48;;;;;;;27.33;21.48;;;18.90;99.90;;;;;;4973580;28;20062;-75
2021/07/15 01:16:31;;;;;;;25.48;19.88;;;18.80;99.90;;;;;;4974827;28;20094;-83
2021/07/15 01:18:59;;;;;;;23.33;19.38;;;18.80;99.90;;;;;;4991942;28;20045;-73
2021/07/15 01:22:05;;;;;;;23.02;20.52;;;18.80;99.90;;;;;;4992846;28;20019;-71
2021/07/15 01:25:09;;;;;;;22.25;18.42;;;18.70;99.90;;;;;;4993528;28;20030;-75
2021/07/15 01:28:20;;;;;;;20.42;18.05;;;18.70;99.90;;;;;;4958797;28;20143;-75
2021/07/15 01:30:51;;;;;;;24.73;18.42;;;18.70;99.90;;;;;;4955406;28;20073;-83
2021/07/15 01:33:42;;;;;;;19.23;16.98;;;18.70;99.90;;;;;;4972874;28;20045;-84
2021/07/15 01:36:13;;;;;;;;;;;18.70;99.90;;;;;;4975765;28;20050;-72
2021/07/15 01:38:42;;;;;;;18.67;16.67;;;18.70;99.90;;;;;;4976433;28;19905;-84
2021/07/15 01:41:15;;;;;;;19.40;16.80;;;18.60;99.90;;;;;;4992096;28;20029;-72
2021/07/15 01:43:51;;;;;;;15.52;13.73;;;18.60;99.90;;;;;;4974245;28;20040;-84
2021/07/15 01:46:17;;;;;;;15.15;13.55;;;18.60;99.90;;;;;;4993608;28;20041;-75
2021/07/15 01:48:45;;;;;;;17.80;15.60;;;18.60;99.90;;;;;;4992615;28;20483;-73
2021/07/15 01:51:12;;;;;;;19.50;17.40;;;18.70;99.90;;;;;;4992858;28;20387;-79
2021/07/15 01:53:38;;;;;;;23.98;18.08;;;18.60;99.90;;;;;;4956784;28;20047;-76
2021/07/15 01:56:06;;;;;;;21.45;17.13;;;18.60;99.90;;;;;;4956047;28;20023;-85
2021/07/15 01:58:34;;;;;;;24.20;18.83;;;18.60;99.90;;;;;;4957333;28;20479;-89
2021/07/15 02:01:01;;;;;;;25.60;20.80;;;18.60;99.90;;;;;;4973535;28;20105;-70
2021/07/15 02:03:29;;;;;;;23.48;19.52;;;18.60;99.90;;;;;;4973097;28;20324;-71
2021/07/15 02:05:55;;;;;;;25.83;20.17;;;18.60;99.90;;;;;;4973399;28;20098;-70
2021/07/15 02:08:22;;;;;;;31.38;21.45;;;18.60;99.90;;;;;;4974279;28;20034;-74
2021/07/15 02:10:49;;;;;;;28.65;21.85;;;18.50;99.90;;;;;;4991821;28;20434;-89
2021/07/15 02:13:15;;;;;;;26.75;21.40;;;18.60;99.90;;;;;;4995811;28;20040;-86
2021/07/15 02:15:43;;;;;;;29.45;21.05;;;18.60;99.90;;;;;;4996783;28;20026;-75
2021/07/15 02:18:15;;;;;;;29.88;21.92;;;18.60;99.90;;;;;;4978085;28;20034;-84
2021/07/15 02:20:43;;;;;;;26.58;21.30;;;18.60;99.90;;;;;;4957869;29;20068;-76
2021/07/15 02:23:09;;;;;;;28.08;20.27;;;18.60;99.90;;;;;;4976333;28;20027;-87
2021/07/15 02:25:38;;;;;;;26.38;20.08;;;18.50;99.90;;;;;;4978383;28;20077;-72
2021/07/15 02:28:07;;;;;;;26.27;20.23;;;18.60;99.90;;;;;;4995978;28;20490;-86
2021/07/15 02:30:33;;;;;;;28.40;22.17;;;18.60;99.90;;;;;;4996420;28;20057;-86
2021/07/15 02:33:04;;;;;;;26.02;20.42;;;18.60;99.90;;;;;;4978859;28;20074;-86
2021/07/15 02:35:35;;;;;;;23.15;20.20;;;18.60;99.90;;;;;;4976950;28;20019;-86
2021/07/15 02:38:04;;;;;;;27.45;20.65;;;18.60;99.90;;;;;;4976252;28;20113;-71
2021/07/15 02:40:30;;;;;;;26.13;19.88;;;18.60;99.90;;;;;;4976614;28;20019;-72
2021/07/15 02:42:57;;;;;;;26.67;20.50;;;18.50;99.90;;;;;;4992145;28;20101;-71
2021/07/15 02:45:23;;;;;;;26.80;19.30;;;18.50;99.90;;;;;;4985607;28;20027;-72
2021/07/15 02:47:49;;;;;;;24.98;19.88;;;18.60;99.90;;;;;;4977876;28;20121;-70
2021/07/15 02:50:18;;;;;;;26.70;19.15;;;18.50;99.90;;;;;;4995811;28;20027;-84
2021/07/15 02:52:44;;;;;;;25.83;20.35;;;18.50;99.90;;;;;;4978380;28;20509;-71
2021/07/15 02:55:11;;;;;;;28.60;20.65;;;18.50;99.90;;;;;;4996536;28;20408;-89
2021/07/15 02:57:49;;;;;;;21.27;16.95;;;18.50;99.90;;;;;;4996897;28;20061;-89
2021/07/15 03:00:17;;;;;;;21.08;16.65;;;18.50;99.90;;;;;;4962530;28;20487;-88
2021/07/15 03:02:58;;;;;;;20.83;16.23;;;18.50;99.90;;;;;;4959619;28;20030;-83
2021/07/15 03:05:34;;;;;;;17.10;14.98;;;18.60;99.90;;;;;;4976732;28;20022;-71
2021/07/15 03:08:08;;;;;;;17.13;14.82;;;18.50;99.90;;;;;;4959916;28;20019;-81
2021/07/15 03:10:35;;;;;;;19.55;15.07;;;18.50;99.90;;;;;;4959486;28;20030;-87
2021/07/15 03:13:06;;;;;;;16.95;15.15;;;18.50;99.90;;;;;;4959206;28;20093;-72
2021/07/15 03:15:35;;;;;;;17.50;14.02;;;18.50;99.90;;;;;;4982398;28;20093;-71
2021/07/15 03:18:02;;;;;;;18.88;14.05;;;18.50;99.90;;;;;;4996076;28;20034;-83
2021/07/15 03:20:34;;;;;;;15.55;13.90;;;18.50;99.90;;;;;;4995355;28;20101;-72
2021/07/15 03:23:05;;;;;;;17.63;13.50;;;18.50;99.90;;;;;;4978509;28;20026;-72
2021/07/15 03:25:33;;;;;;;15.65;14.15;;;18.50;99.90;;;;;;4994649;28;20073;-72
2021/07/15 03:28:00;;;;;;;15.30;12.75;;;18.50;99.90;;;;;;4995428;28;20053;-72
2021/07/15 03:30:27;;;;;;;13.82;11.95;;;18.50;99.90;;;;;;4986735;28;20018;-86
2021/07/15 03:32:55;;;;;;;12.95;11.60;;;18.50;99.90;;;;;;4976350;28;20454;-86
2021/07/15 03:35:22;;;;;;;13.73;11.20;;;18.40;99.90;;;;;;4975426;28;20022;-75
2021/07/15 03:37:48;;;;;;;11.73;10.15;;;18.50;99.90;;;;;;4976234;28;20034;-85
2021/07/15 03:40:17;;;;;;;13.30;9.90;;;18.50;99.90;;;;;;4976656;28;20088;-87
2021/07/15 03:42:45;;;;;;;11.50;10.30;;;18.50;99.90;;;;;;4975899;28;20031;-89
2021/07/15 03:45:14;;;;;;;10.48;8.90;;;18.50;99.90;;;;;;4959040;28;20048;-76
2021/07/15 03:47:40;;;;;;;10.80;9.63;;;18.50;99.90;;;;;;4976037;28;20042;-70
2021/07/15 03:50:07;;;;;;;10.10;9.20;;;18.50;99.90;;;;;;4979523;28;20095;-86
2021/07/15 03:52:33;;;;;;;11.32;9.60;;;18.50;99.90;;;;;;4985227;28;20505;-87
2021/07/15 03:55:00;;;;;;;11.40;10.20;;;18.50;99.90;;;;;;4967163;28;20110;-71
2021/07/15 03:57:27;;;;;;;9.65;8.75;;;18.40;99.90;;;;;;4965346;28;20025;-86
2021/07/15 03:59:55;;;;;;;10.98;9.73;;;18.50;99.90;;;;;;4978712;28;20357;-71
2021/07/15 04:02:25;;;;;;;11.15;10.02;;;18.50;99.90;;;;;;4977894;28;20037;-72
2021/07/15 04:04:57;;;;;;;11.45;10.23;;;18.50;99.90;;;;;;4961824;28;20077;-89
2021/07/15 04:07:26;;;;;;;10.23;9.20;;;18.40;99.90;;;;;;4967920;28;20031;-71
2021/07/15 04:09:53;;;;;;;11.70;10.18;;;18.50;99.90;;;;;;4988778;28;20081;-72
2021/07/15 04:12:22;;;;;;;10.23;9.05;;;18.40;99.90;;;;;;4973573;28;20031;-73
2021/07/15 04:15:04;;;;;;;10.15;8.20;;;18.40;99.90;;;;;;4956421;28;20035;-74
2021/07/15 04:17:33;;;;;;;8.75;7.88;;;18.40;99.90;;;;;;4957136;28;20033;-77
2021/07/15 04:20:01;;;;;;;10.38;8.18;;;18.40;99.90;;;;;;4974814;28;20145;-86
2021/07/15 04:22:28;;;;;;;8.48;7.68;;;18.40;99.90;;;;;;4969583;28;20384;-72
2021/07/15 04:24:55;;;;;;;8.35;7.40;;;18.30;99.90;;;;;;4958520;28;20054;-72
2021/07/15 04:27:22;;;;;;;7.78;7.05;;;18.30;99.90;;;;;;4964619;28;20078;-86
2021/07/15 04:29:48;;;;;;;7.53;6.80;;;18.30;99.90;;;;;;4967236;28;20027;-71
2021/07/15 04:32:22;;;;;;;8.30;7.13;;;18.30;99.90;;;;;;4971088;28;20027;-74
2021/07/15 04:34:48;;;;;;;8.50;6.97;;;18.30;99.90;;;;;;4974918;28;20369;-73
2021/07/15 04:37:17;;;;;;;10.27;7.28;;;18.30;99.90;;;;;;4974388;28;20023;-70
2021/07/15 04:39:43;;;;;;;8.23;7.38;;;18.30;99.90;;;;;;4961026;28;20048;-86
2021/07/15 04:42:11;;;;;;;9.45;8.05;;;18.30;99.90;;;;;;4975167;28;20030;-71
2021/07/15 04:44:38;;;;;;;10.07;8.45;;;18.30;99.90;;;;;;4969061;28;20023;-80
2021/07/15 04:47:05;;;;;;;11.15;9.57;;;18.30;99.90;;;;;;4986022;28;20035;-71
2021/07/15 04:49:31;;;;;;;13.05;10.85;;;18.30;99.90;;;;;;4971306;28;20026;-86
2021/07/15 04:51:58;;;;;;;15.20;11.32;;;18.30;99.90;;;;;;4973785;28;20049;-70
2021/07/15 04:54:24;;;;;;;15.95;11.45;;;18.30;99.90;;;;;;4956617;28;20176;-71
2021/07/15 04:56:51;;;;;;;16.13;11.98;;;18.30;99.90;;;;;;4976808;28;20078;-70
2021/07/15 04:59:17;;;;;;;16.27;13.27;;;18.30;99.90;;;;;;4975496;28;20026;-87
2021/07/15 05:01:43;;;;;;;17.58;13.02;;;18.30;99.90;;;;;;4979187;28;20027;-85
2021/07/15 05:04:09;;;;;;;19.63;15.07;;;18.30;99.90;;;;;;4973822;28;20027;-73
2021/07/15 05:06:34;;;;;;;19.40;15.05;;;18.30;99.90;;;;;;4991837;28;20084;-86
2021/07/15 05:09:00;;;;;;;22.13;15.38;;;18.30;99.90;;;;;;4988356;28;20081;-87
2021/07/15 05:11:26;;;;;;;22.35;15.23;;;18.40;99.90;;;;;;4960369;28;20022;-71
2021/07/15 05:13:51;;;;;;;23.70;17.42;;;18.30;99.90;;;;;;4992525;28;20081;-72
2021/07/15 05:16:17;;;;;;;21.77;15.55;;;18.40;99.90;;;;;;4991224;28;20022;-78
2021/07/15 05:18:43;;;;;;;21.25;15.68;;;18.30;99.90;;;;;;4993661;28;20032;-88
2021/07/15 05:21:09;;;;;;;21.08;15.77;;;18.40;99.90;;;;;;4992834;28;20025;-71
2021/07/15 05:23:35;;;;;;;19.90;15.80;;;18.40;99.90;;;;;;4992952;28;20105;-87
2021/07/15 05:26:01;;;;;;;17.83;13.98;;;18.40;99.90;;;;;;4990033;28;20089;-78
2021/07/15 05:28:27;;;;;;;19.23;15.02;;;18.40;99.90;;;;;;4974834;28;20487;-87
2021/07/15 05:30:53;;;;;;;20.33;16.05;;;18.40;99.90;;;;;;4988888;28;20030;-73
2021/07/15 05:33:19;;;;;;;52.47;21.17;;;18.40;99.90;;;;;;4992568;28;20121;-75
2021/07/15 05:35:45;;;;;;;30.13;21.95;;;18.50;99.90;;;;;;4973912;28;20552;-84
2021/07/15 05:38:10;;;;;;;22.77;17.83;;;18.50;99.90;;;;;;4973643;28;20113;-83
2021/07/15 05:40:36;;;;;;;23.50;16.60;;;18.50;99.90;;;;;;4974240;28;20030;-85
2021/07/15 05:43:02;;;;;;;24.08;17.85;;;18.50;99.90;;;;;;4955473;28;20031;-70
2021/07/15 05:45:28;;;;;;;23.75;17.33;;;18.50;99.90;;;;;;4973371;28;20023;-77
2021/07/15 05:47:53;;;;;;;29.75;19.63;;;18.50;99.90;;;;;;4972560;28;20109;-77
2021/07/15 05:50:19;;;;;;;27.88;20.02;;;18.40;99.90;;;;;;4978841;28;20022;-92
2021/07/15 05:52:45;;;;;;;27.60;19.48;;;18.40;99.90;;;;;;4972603;28;20042;-79
2021/07/15 05:55:11;;;;;;;31.38;21.48;;;18.40;99.90;;;;;;4964162;28;20112;-71
2021/07/15 05:57:37;;;;;;;31.80;22.52;;;18.40;99.90;;;;;;4974936;28;20043;-71
2021/07/15 06:00:08;;;;;;;30.48;21.48;;;18.40;99.90;;;;;;4978080;28;20447;-71
2021/07/15 06:02:33;;;;;;;38.13;23.08;;;18.40;99.90;;;;;;4973930;28;20035;-74
2021/07/15 06:04:59;;;;;;;32.22;21.67;;;18.40;99.90;;;;;;4989452;28;20111;-87
2021/07/15 06:07:26;;;;;;;29.88;22.52;;;18.40;99.90;;;;;;4970780;28;20065;-80
2021/07/15 06:09:52;;;;;;;33.13;21.83;;;18.50;99.90;;;;;;4979659;28;20019;-75
2021/07/15 06:12:18;;;;;;;29.60;22.33;;;18.40;99.90;;;;;;4973666;28;20043;-75
2021/07/15 06:14:44;;;;;;;33.88;21.63;;;18.40;99.90;;;;;;4972861;28;20015;-82
2021/07/15 06:17:09;;;;;;;33.45;22.73;;;18.40;99.90;;;;;;4973283;28;20031;-79
2021/07/15 06:19:35;;;;;;;33.30;23.33;;;18.50;99.90;;;;;;4979560;28;20023;-86
2021/07/15 06:22:00;;;;;;;30.20;22.48;;;18.50;99.90;;;;;;4965381;28;20030;-80
2021/07/15 06:24:26;;;;;;;35.05;23.75;;;18.50;99.90;;;;;;4992183;28;20058;-90
2021/07/15 06:26:52;;;;;;;33.55;23.42;;;18.40;99.90;;;;;;4975035;28;20371;-75
2021/07/15 06:29:17;;;;;;;29.90;22.65;;;18.40;99.90;;;;;;4992642;28;20365;-83
2021/07/15 06:31:43;;;;;;;27.67;21.60;;;18.40;99.90;;;;;;4973012;28;20038;-74
2021/07/15 06:34:10;;;;;;;27.70;21.13;;;18.40;99.90;;;;;;4974866;28;20026;-87
2021/07/15 06:36:36;;;;;;;29.52;20.95;;;18.50;99.90;;;;;;4992572;28;20026;-87
2021/07/15 06:39:03;;;;;;;23.67;18.95;;;18.50;99.90;;;;;;4991621;28;20152;-74
2021/07/15 06:41:28;;;;;;;24.17;17.83;;;18.60;99.90;;;;;;4975574;28;20014;-82
2021/07/15 06:43:54;;;;;;;22.83;16.90;;;18.60;99.90;;;;;;4973144;28;20498;-87
2021/07/15 06:46:22;;;;;;;19.42;15.45;;;18.60;99.90;;;;;;4984616;28;20126;-72
2021/07/15 06:48:48;;;;;;;14.90;13.27;;;18.60;99.90;;;;;;4955662;28;20109;-73
2021/07/15 06:51:14;;;;;;;16.23;13.93;;;18.60;99.90;;;;;;4972237;28;20097;-72
2021/07/15 06:53:39;;;;;;;14.98;12.20;;;18.60;99.90;;;;;;4972313;28;20035;-83
2021/07/15 06:56:05;;;;;;;11.43;10.20;;;18.70;99.90;;;;;;4956463;28;20114;-71
2021/07/15 06:58:30;;;;;;;9.63;8.63;;;18.70;99.90;;;;;;4974116;28;20031;-72
2021/07/15 07:00:56;;;;;;;9.35;8.48;;;18.70;99.90;;;;;;4975881;28;20023;-71
2021/07/15 07:03:23;;;;;;;9.65;8.63;;;18.80;99.90;;;;;;4977419;28;20429;-84
2021/07/15 07:05:53;;;;;;;9.40;8.40;;;18.80;99.90;;;;;;4988975;28;20039;-72
2021/07/15 07:08:19;;;;;;;8.93;7.90;;;18.80;99.90;;;;;;4976117;28;20019;-74
2021/07/15 07:10:45;;;;;;;9.18;8.20;;;18.80;99.90;;;;;;4984747;28;20027;-75
2021/07/15 07:13:11;;;;;;;9.88;8.85;;;18.70;99.90;;;;;;4991453;28;20053;-84
2021/07/15 07:15:45;;;;;;;12.50;9.27;;;18.70;99.90;;;;;;4962551;28;20026;-84
2021/07/15 07:18:12;;;;;;;9.60;8.70;;;18.70;99.90;;;;;;4977833;28;20034;-78
2021/07/15 07:20:38;;;;;;;9.82;7.90;;;18.70;99.90;;;;;;4995658;28;20045;-74
2021/07/15 07:23:05;;;;;;;11.68;9.23;;;18.70;99.90;;;;;;4966376;28;20388;-75
2021/07/15 07:25:31;;;;;;;14.13;9.35;;;18.70;99.90;;;;;;4959114;28;20570;-74
2021/07/15 07:27:56;;;;;;;13.60;10.48;;;18.80;99.90;;;;;;4958839;28;20114;-73
2021/07/15 07:30:23;;;;;;;16.23;11.38;;;18.80;99.90;;;;;;4966691;28;20371;-74
2021/07/15 15:23:01;;;;;;;13.18;8.27;;;19.20;99.90;;;;;;5969539;23;20021;-73
2021/07/15 15:25:27;;;;;;;11.50;7.47;;;19.20;99.90;;;;;;4950716;29;20055;-72
2021/07/15 15:27:52;;;;;;;9.82;6.93;;;19.20;99.90;;;;;;4952811;29;20024;-79
2021/07/15 15:30:19;;;;;;;9.85;6.95;;;19.20;99.90;;;;;;4955093;28;20482;-75
2021/07/15 15:32:45;;;;;;;8.25;6.43;;;19.20;99.90;;;;;;4962490;28;20046;-73
2021/07/15 15:35:13;;;;;;;7.50;6.72;;;19.20;99.90;;;;;;4953891;28;20080;-75
2021/07/15 15:37:39;;;;;;;8.50;6.80;;;19.30;99.90;;;;;;4951498;29;20027;-76
2021/07/15 15:40:06;;;;;;;12.15;7.55;;;19.30;99.90;;;;;;4950919;29;20035;-72
2021/07/15 15:42:32;;;;;;;13.57;8.05;;;19.30;99.90;;;;;;4952256;28;20058;-73
2021/07/15 15:44:58;;;;;;;11.65;6.95;;;19.40;99.90;;;;;;4949794;29;20062;-72
2021/07/15 15:47:24;;;;;;;12.10;6.65;;;19.50;99.90;;;;;;4947024;29;20028;-72
2021/07/15 15:49:50;;;;;;;8.15;5.75;;;19.40;99.90;;;;;;4931522;29;20079;-71
2021/07/15 15:52:16;;;;;;;8.07;5.82;;;19.40;99.90;;;;;;4934287;29;20035;-72
2021/07/15 15:54:42;;;;;;;7.32;5.82;;;19.30;99.90;;;;;;4951665;29;20069;-73
2021/07/15 15:57:08;;;;;;;9.07;6.13;;;19.20;99.90;;;;;;4950621;29;20078;-72
2021/07/15 15:59:35;;;;;;;10.27;6.65;;;19.10;99.90;;;;;;4946894;29;20126;-72
2021/07/15 16:02:03;;;;;;;6.93;5.45;;;19.10;99.90;;;;;;4932466;29;20027;-73
2021/07/15 16:04:29;;;;;;;10.32;6.03;;;19.00;99.90;;;;;;4933300;29;20024;-73
2021/07/15 16:06:56;;;;;;;8.55;6.55;;;19.00;99.90;;;;;;4934718;29;20137;-71
2021/07/15 16:09:26;;;;;;;7.03;5.85;;;18.90;99.90;;;;;;4932442;29;20491;-70
2021/07/15 16:11:52;;;;;;;7.15;6.05;;;18.90;99.90;;;;;;4932034;29;20046;-69
2021/07/15 16:14:20;;;;;;;12.35;8.00;;;18.80;99.90;;;;;;4931935;29;20028;-70
2021/07/15 16:16:46;;;;;;;10.57;7.80;;;18.70;99.90;;;;;;4940338;29;20023;-69
2021/07/15 16:19:11;;;;;;;9.73;7.45;;;18.60;99.90;;;;;;4937137;29;20042;-76
2021/07/15 16:21:42;;;;;;;10.63;7.00;;;18.50;99.90;;;;;;4951088;29;20379;-71
2021/07/15 16:24:07;;;;;;;7.68;6.40;;;18.50;99.90;;;;;;4952617;28;20039;-71
2021/07/15 16:26:34;;;;;;;8.90;7.50;;;18.40;99.90;;;;;;4952138;28;20050;-72
2021/07/15 16:29:00;;;;;;;8.75;7.18;;;18.40;99.90;;;;;;4951344;29;20023;-70
2021/07/15 16:31:25;;;;;;;11.55;7.65;;;18.50;99.90;;;;;;4950838;28;20035;-73
2021/07/15 16:33:51;;;;;;;11.70;7.57;;;18.50;99.90;;;;;;4956233;28;20168;-70
2021/07/15 16:36:17;;;;;;;10.30;7.43;;;18.50;99.90;;;;;;4967918;28;20077;-71
2021/07/15 16:38:43;;;;;;;14.88;8.13;;;18.50;99.90;;;;;;4948036;28;20871;-73
2021/07/15 16:41:09;;;;;;;11.93;8.02;;;18.40;99.90;;;;;;4970312;28;20034;-71
2021/07/15 16:43:35;;;;;;;12.10;8.00;;;18.50;99.90;;;;;;4974827;28;20038;-72
2021/07/15 16:46:04;;;;;;;16.02;8.70;;;18.60;99.90;;;;;;4957292;28;20038;-70
2021/07/15 16:48:33;;;;;;;10.82;8.07;;;18.70;99.90;;;;;;4956699;28;20113;-77
2021/07/15 16:50:59;;;;;;;14.82;9.07;;;18.70;99.90;;;;;;4959929;28;20106;-71
2021/07/15 16:53:26;;;;;;;12.98;8.50;;;18.80;99.90;;;;;;4952069;29;20154;-72
2021/07/15 16:55:53;;;;;;;15.82;8.68;;;18.80;99.90;;;;;;4934585;29;20160;-70
2021/07/15 16:58:18;;;;;;;13.23;8.20;;;18.80;99.90;;;;;;4951789;29;20059;-78
2021/07/15 17:00:45;;;;;;;13.55;9.18;;;18.90;99.90;;;;;;4952615;28;20075;-76
2021/07/15 17:03:14;;;;;;;15.07;9.45;;;18.90;99.90;;;;;;4951010;29;20468;-71
2021/07/15 17:05:40;;;;;;;19.70;8.70;;;18.90;99.90;;;;;;4951776;29;20749;-71
2021/07/15 17:08:07;;;;;;;14.38;8.35;;;18.90;99.90;;;;;;4934220;29;20042;-73
2021/07/15 17:10:32;;;;;;;13.02;8.77;;;19.00;99.90;;;;;;4955496;28;20122;-71
2021/07/15 17:12:58;;;;;;;14.10;9.00;;;19.00;99.90;;;;;;4960416;28;20126;-75
2021/07/15 17:15:24;;;;;;;14.40;8.57;;;19.00;99.90;;;;;;4934417;28;20470;-88
2021/07/15 17:17:49;;;;;;;11.88;8.52;;;19.10;99.90;;;;;;4967609;28;20031;-70
2021/07/15 17:20:15;;;;;;;12.95;9.32;;;19.10;99.90;;;;;;4970788;28;20641;-69
2021/07/15 17:22:41;;;;;;;17.80;8.90;;;19.20;99.90;;;;;;4964277;28;20031;-72
2021/07/15 17:25:08;;;;;;;14.38;8.75;;;19.40;99.90;;;;;;4950514;28;20090;-72
2021/07/15 17:27:34;;;;;;;17.67;9.70;;;19.50;99.90;;;;;;4935060;28;20050;-70
2021/07/15 17:29:59;;;;;;;16.00;8.70;;;19.60;99.90;;;;;;4948107;29;20086;-70
2021/07/15 17:32:25;;;;;;;12.35;8.45;;;19.70;99.90;;;;;;4934295;28;20039;-73
2021/07/15 17:34:51;;;;;;;16.63;9.60;;;19.70;99.90;;;;;;4958103;28;20035;-70
2021/07/15 17:37:16;;;;;;;17.85;8.90;;;19.80;99.90;;;;;;4950683;28;20023;-71
2021/07/15 17:39:42;;;;;;;14.65;8.82;;;19.80;99.90;;;;;;4933489;29;20074;-70
2021/07/15 17:42:07;;;;;;;17.55;9.15;;;19.90;99.90;;;;;;4933665;29;20038;-69
2021/07/15 17:44:33;;;;;;;19.55;8.02;;;20.10;99.90;;;;;;4950264;29;20038;-81
2021/07/15 17:46:59;;;;;;;14.10;8.15;;;20.10;99.90;;;;;;4952307;28;20693;-86
2021/07/15 17:49:26;;;;;;;13.48;8.02;;;20.00;99.90;;;;;;4950733;29;20499;-70
2021/07/15 17:51:52;;;;;;;13.75;7.80;;;19.90;99.90;;;;;;4950363;29;20015;-70
2021/07/15 17:54:17;;;;;;;15.40;7.75;;;19.80;99.90;;;;;;4962704;28;20041;-74
2021/07/15 17:56:43;;;;;;;12.73;8.05;;;19.70;99.90;;;;;;4949697;28;20034;-69
2021/07/15 17:59:10;;;;;;;13.80;8.55;;;19.70;99.90;;;;;;4951246;29;20074;-70
2021/07/15 18:01:36;;;;;;;13.25;7.88;;;19.70;99.90;;;;;;4950986;29;20118;-73
2021/07/15 18:04:02;;;;;;;13.38;7.25;;;19.80;99.90;;;;;;4951250;29;20035;-69
2021/07/15 18:06:28;;;;;;;16.20;7.68;;;19.80;99.90;;;;;;4950831;28;20031;-72
2021/07/15 18:08:54;;;;;;;13.73;7.95;;;19.80;99.90;;;;;;4968411;28;20093;-69
2021/07/15 18:11:19;;;;;;;16.60;8.00;;;19.80;99.90;;;;;;4950754;28;20069;-80
2021/07/15 18:13:45;;;;;;;11.93;7.10;;;19.80;99.90;;;;;;4949910;29;20043;-70
2021/07/15 18:16:12;;;;;;;12.45;6.90;;;19.70;99.90;;;;;;4950822;29;20030;-69
2021/07/15 18:18:37;;;;;;;16.63;7.32;;;19.70;99.90;;;;;;4950953;29;20085;-70
2021/07/15 18:21:03;;;;;;;20.65;7.60;;;19.60;99.90;;;;;;4950383;29;20027;-73
2021/07/15 18:23:30;;;;;;;12.40;6.75;;;19.60;99.90;;;;;;4964810;28;20031;-72
2021/07/15 18:25:58;;;;;;;17.73;7.72;;;19.50;99.90;;;;;;4932917;29;20031;-71
2021/07/15 18:28:23;;;;;;;14.23;7.07;;;19.40;99.90;;;;;;4931609;29;20070;-71
2021/07/15 18:30:49;;;;;;;14.15;6.93;;;19.40;99.90;;;;;;4932693;29;20106;-71
2021/07/15 18:33:16;;;;;;;13.25;6.97;;;19.30;99.90;;;;;;4949950;29;20061;-73
2021/07/15 18:35:41;;;;;;;14.95;7.10;;;19.20;99.90;;;;;;4948036;28;20046;-72
2021/07/15 18:38:07;;;;;;;14.75;7.07;;;19.20;99.90;;;;;;4969471;28;20407;-75
2021/07/15 18:40:33;;;;;;;12.48;6.80;;;19.10;99.90;;;;;;4954475;28;20514;-69
2021/07/15 18:42:59;;;;;;;11.25;6.45;;;19.00;99.90;;;;;;4950768;29;20114;-71
2021/07/15 18:45:26;;;;;;;15.52;7.53;;;19.00;99.90;;;;;;4955755;28;20482;-71
2021/07/15 18:47:53;;;;;;;12.63;6.50;;;18.90;99.90;;;;;;4959422;28;20035;-70
2021/07/15 18:50:22;;;;;;;17.65;7.22;;;18.80;99.90;;;;;;4933381;29;20083;-77
2021/07/15 18:52:48;;;;;;;17.35;7.65;;;18.80;99.90;;;;;;4942399;28;20046;-71
2021/07/15 18:55:16;;;;;;;11.18;5.90;;;18.80;99.90;;;;;;4971894;28;20037;-72
2021/07/15 18:57:42;;;;;;;16.50;7.05;;;18.70;99.90;;;;;;4956152;28;20042;-70
2021/07/15 19:00:11;;;;;;;16.17;6.75;;;18.70;99.90;;;;;;4973175;28;20027;-70
2021/07/15 19:02:37;;;;;;;11.40;6.40;;;18.60;99.90;;;;;;4972221;28;20394;-70
2021/07/15 19:05:05;;;;;;;11.50;6.82;;;18.60;99.90;;;;;;4973061;28;20027;-69
2021/07/15 19:07:30;;;;;;;10.38;7.00;;;18.60;99.90;;;;;;4968975;28;20061;-72
2021/07/15 19:09:56;;;;;;;18.02;7.40;;;18.60;99.90;;;;;;4966052;28;20062;-69
2021/07/15 19:12:22;;;;;;;19.85;8.43;;;18.50;99.90;;;;;;4953177;29;20043;-70
2021/07/15 19:14:48;;;;;;;13.38;7.47;;;18.50;99.90;;;;;;4937176;28;20035;-70
2021/07/15 19:17:14;;;;;;;13.27;7.32;;;18.40;99.90;;;;;;4952735;28;20118;-70
2021/07/15 19:19:39;;;;;;;10.38;6.05;;;18.40;99.90;;;;;;4953607;29;20106;-70
2021/07/15 19:22:08;;;;;;;18.98;7.72;;;18.30;99.90;;;;;;4953341;29;20086;-76
2021/07/15 19:24:34;;;;;;;15.98;7.60;;;18.20;99.90;;;;;;4952604;29;20059;-70
2021/07/15 19:27:00;;;;;;;14.52;7.00;;;18.20;99.90;;;;;;4954308;28;20039;-69
2021/07/15 19:29:26;;;;;;;14.18;6.63;;;18.10;99.90;;;;;;4953068;29;20046;-73
2021/07/15 19:31:51;;;;;;;11.98;6.90;;;18.10;99.90;;;;;;4935769;29;20063;-70
2021/07/15 19:34:17;;;;;;;15.27;6.93;;;18.00;99.90;;;;;;4954237;28;20053;-70
2021/07/15 19:36:44;;;;;;;14.60;7.13;;;18.00;99.90;;;;;;4953581;29;20027;-70
2021/07/15 19:39:10;;;;;;;13.30;7.15;;;17.90;99.90;;;;;;4935093;29;20070;-69
2021/07/15 19:41:35;;;;;;;14.48;7.45;;;17.90;99.90;;;;;;4954319;28;20070;-71
2021/07/15 19:44:01;;;;;;;13.50;7.07;;;17.90;99.90;;;;;;4971647;28;20485;-74
2021/07/15 19:46:26;;;;;;;15.55;6.93;;;17.80;99.90;;;;;;4955000;28;20047;-71
2021/07/15 19:48:52;;;;;;;16.00;7.95;;;17.80;99.90;;;;;;4955313;28;20033;-70
2021/07/15 19:51:18;;;;;;;14.38;7.32;;;17.80;99.90;;;;;;4967509;28;20110;-69
2021/07/15 19:53:44;;;;;;;12.35;6.78;;;17.80;99.90;;;;;;4964731;28;20085;-73
2021/07/15 19:56:09;;;;;;;13.57;6.68;;;17.80;99.90;;;;;;4952515;29;20031;-71
2021/07/15 19:58:35;;;;;;;15.20;7.90;;;17.80;99.90;;;;;;4952355;28;20843;-85
2021/07/15 20:01:00;;;;;;;15.45;6.72;;;17.80;99.90;;;;;;4952808;29;20711;-70
2021/07/15 20:03:26;;;;;;;18.42;7.50;;;17.80;99.90;;;;;;4952256;29;20046;-70
2021/07/15 20:05:51;;;;;;;15.88;7.10;;;17.90;99.90;;;;;;4950955;28;20086;-72
2021/07/15 20:08:21;;;;;;;13.85;6.50;;;17.90;99.90;;;;;;4953730;28;20035;-70
2021/07/15 20:10:48;;;;;;;14.70;7.07;;;18.00;99.90;;;;;;4956938;28;20015;-70
2021/07/15 20:13:14;;;;;;;13.85;6.60;;;18.00;99.90;;;;;;4959284;28;20046;-72
2021/07/15 20:15:40;;;;;;;13.45;7.13;;;18.10;99.90;;;;;;4963772;28;20085;-82
2021/07/15 20:18:07;;;;;;;13.48;6.65;;;18.10;99.90;;;;;;4937959;29;20035;-69
2021/07/15 20:20:35;;;;;;;17.63;6.70;;;18.10;99.90;;;;;;4934945;28;20404;-70
2021/07/15 20:23:05;;;;;;;13.63;6.55;;;18.10;99.90;;;;;;4959476;28;20431;-70